Nearby METAR Reports

 

KSJC - San Jose, California, USA
Distance from station: NE 14km
Actualización: 17/07/2019 23:53
Few Clouds
Few Clouds
 Viento del SSE
Viento: SSE 15 km/h
Temperatura: 19°C
Rocío: 13°C
Humedad: 68%
Barómetro: 1012.5 hPa
Clouds: Few Clouds
Visibility: 16 km
Cloud details: Few Clouds 3048 m
Few Clouds 4877 m
2019/07/18 06:53 KSJC 180653Z 15008KT 10SM FEW100 FEW160 19/13 A2990 RMK AO2 SLP125 LAST T01940128
KNUQ - Moffett Nas/Mtn, California, USA
Distance from station: N 14km
Actualización: 17/07/2019 23:56
Despejado
Despejado
 Viento del N
Viento: N 9 km/h
Temperatura: 19°C
Rocío: 15°C
Humedad: 78%
Barómetro: 1012.9 hPa
Clouds: Despejado
Visibility: 16 km
2019/07/18 06:56 KNUQ 180656Z 36005KT 10SM CLR 19/15 A2991 RMK AO2 SLP131 T01890150 $
 
KPAO - Palo Alto, California, USA
Distance from station: NNO 23km
Actualización: 17/07/2019 20:47
NOT Current
Parcialmente nuboso
Parcialmente nuboso
 Viento del NO
Viento: NO 15 km/h
Temperatura: 19°C
Rocío: 15°C
Humedad: 78%
Barómetro: 1011.9 hPa
Clouds: Parcialmente nuboso
Visibility: 16 km
Cloud details: Parcialmente nuboso 3658 m
2019/07/18 03:47 KPAO 180347Z 32008KT 10SM SCT120 19/15 A2988 RMK LAST GPS/VOR NA AT NIGHT
KRHV - San Jose/Reid, California, USA
Distance from station: ENE 19km
Actualización: 17/07/2019 21:57
NOT Current
Despejado
Despejado
 Viento del varies
Viento: varies 11 km/h
Temperatura: 23°C
Rocío: 12°C
Humedad: 50%
Barómetro: 1012.9 hPa
Clouds: Despejado
Visibility: 16 km
2019/07/18 04:57 KRHV 180457Z VRB06KT 10SM SKC 23/12 A2991 RMK LAST
 
KOAK - Oakland, California, USA
Distance from station: NNO 50km
Actualización: 17/07/2019 23:53
Few Clouds
Few Clouds
 Viento del NO
Viento: NO 9 km/h
Temperatura: 17°C
Rocío: 13°C
Humedad: 77%
Barómetro: 1013.2 hPa
Clouds: Few Clouds
Visibility: 16 km
Cloud details: Few Clouds 244 m
Few Clouds 6096 m
2019/07/18 06:53 KOAK 180653Z 31005KT 10SM FEW008 FEW200 17/13 A2992 RMK AO2 SLP129 T01670128 $
KSQL - San Carlos Airpo, California, USA
Distance from station: NO 34km
Actualización: 17/07/2019 20:47
NOT Current
Despejado
Despejado
 Viento del NO
Viento: NO 11 km/h
Temperatura: 20°C
Rocío: 13°C
Humedad: 64%
Barómetro: 1012.2 hPa
Clouds: Despejado
Visibility: 16 km
2019/07/18 03:47 KSQL 180347Z 31006KT 10SM SKC 20/13 A2989 RMK LAST
 
KSFO - San Francisco, California, USA
Distance from station: NO 49km
Actualización: 17/07/2019 23:56
Few Clouds
Few Clouds
 Viento del ONO
Viento: ONO 15 km/h
Temperatura: 16°C
Rocío: 12°C
Humedad: 77%
Barómetro: 1012.5 hPa
Clouds: Few Clouds
Visibility: 16 km
Cloud details: Few Clouds 6096 m
2019/07/18 06:56 KSFO 180656Z 29008KT 10SM FEW200 16/12 A2990 RMK AO2 SLP125 T01610117
KE16 - San Martin, California, USA
Distance from station: ESE 43km
Actualización: 18/07/2019 00:30
Despejado
Despejado
 Viento del SE
Viento: SE 15 km/h
Temperatura: 14°C
Rocío: 12°C
Humedad: 88%
Barómetro: 1014.9 hPa
Clouds: Despejado
Visibility: 16 km
2019/07/18 07:30 KE16 180730Z AUTO 13008KT 10SM CLR 14/12 A2997 RMK AO2
 
KWVI - Watsonville, California, USA
Distance from station: SSE 44km
Actualización: 17/07/2019 23:53
Cubierto
Cubierto
 Viento del ONO
Viento: ONO 6 km/h
Temperatura: 13°C
Rocío: 12°C
Humedad: 94%
Barómetro: 1014.9 hPa
Clouds: Cubierto
Visibility: 16 km
Cloud details: Cubierto 122 m
2019/07/18 06:53 KWVI 180653Z AUTO 30003KT 10SM OVC004 13/12 A2997 RMK AO2 SLP149 T01330117
KHAF - Half Moon Bay, California, USA
Distance from station: ONO 50km
Actualización: 18/07/2019 00:35
Mist, Cubierto
Mist, Cubierto
 Viento del SSE
Viento: SSE 13 km/h
Temperatura: 14°C
Rocío: 13°C
Humedad: 94%
Barómetro: 1014.2 hPa
Resumen: Mist
Clouds: Cubierto
Visibility: 8 km
Cloud details: Cubierto 122 m
2019/07/18 07:35 KHAF 180735Z AUTO 15007KT 5SM BR OVC004 14/13 A2995 RMK AO2
 
KHWD - Hayward, California, USA
Distance from station: N 44km
Actualización: 17/07/2019 23:54
Despejado
Despejado
 Viento del NNO
Viento: NNO 11 km/h
Temperatura: 17°C
Rocío: 13°C
Humedad: 77%
Barómetro: 1012.5 hPa
Clouds: Despejado
Visibility: 16 km
2019/07/18 06:54 KHWD 180654Z AUTO 34006KT 10SM CLR 17/13 A2990 RMK AO2 SLP134 T01670128
KLVK - Livermore, California, USA
Distance from station: NNE 51km
Actualización: 17/07/2019 23:53
Despejado
Despejado
 Viento del NO
Viento: NO 7 km/h
Temperatura: 20°C
Rocío: 12°C
Humedad: 60%
Barómetro: 1011.9 hPa
Clouds: Despejado
Visibility: 16 km
2019/07/18 06:53 KLVK 180653Z AUTO 31004KT 10SM CLR 20/12 A2988 RMK AO2 SLP115 T02000117